sensor_id;sensor_type;location;lat;lon;timestamp;pressure;altitude;pressure_sealevel;temperature;humidity
68891;BME280;55932;48.702;8.884;2022-07-29T00:02:21;95980;;;17.9;50.5
68891;BME280;55932;48.702;8.884;2022-07-29T00:07:21;95970;;;17.8;50.5
68891;BME280;55932;48.702;8.884;2022-07-29T00:12:29;95960;;;17.8;50.5
68891;BME280;55932;48.702;8.884;2022-07-29T00:15:00;95960;;;17.7;51
68891;BME280;55932;48.702;8.884;2022-07-29T00:17:31;95960;;;17.7;51
68891;BME280;55932;48.702;8.884;2022-07-29T00:20:02;95970;;;17.6;51
68891;BME280;55932;48.702;8.884;2022-07-29T00:27:46;95970;;;17.6;51
68891;BME280;55932;48.702;8.884;2022-07-29T00:30:23;95980;;;17.6;51
68891;BME280;55932;48.702;8.884;2022-07-29T00:35:05;95970;;;17.6;51
68891;BME280;55932;48.702;8.884;2022-07-29T00:37:35;95970;;;17.6;51
68891;BME280;55932;48.702;8.884;2022-07-29T00:40:07;95970;;;17.6;51
68891;BME280;55932;48.702;8.884;2022-07-29T00:42:41;95960;;;17.6;51
68891;BME280;55932;48.702;8.884;2022-07-29T00:52:35;95950;;;17.6;51
68891;BME280;55932;48.702;8.884;2022-07-29T00:55:06;95950;;;17.6;51
68891;BME280;55932;48.702;8.884;2022-07-29T00:57:36;95940;;;17.6;51
68891;BME280;55932;48.702;8.884;2022-07-29T01:02:37;95930;;;17.5;51
68891;BME280;55932;48.702;8.884;2022-07-29T01:07:46;95940;;;17.6;51
68891;BME280;55932;48.702;8.884;2022-07-29T01:10:16;95940;;;17.5;51
68891;BME280;55932;48.702;8.884;2022-07-29T01:12:49;95940;;;17.5;51
68891;BME280;55932;48.702;8.884;2022-07-29T01:15:25;95930;;;17.5;51
68891;BME280;55932;48.702;8.884;2022-07-29T01:23:08;95930;;;17.6;50.5
68891;BME280;55932;48.702;8.884;2022-07-29T01:26:41;95920;;;17.7;50.5
68891;BME280;55932;48.702;8.884;2022-07-29T01:30:21;95920;;;17.7;50.5
68891;BME280;55932;48.702;8.884;2022-07-29T01:32:54;95920;;;17.7;50.5
68891;BME280;55932;48.702;8.884;2022-07-29T01:35:39;95920;;;17.7;50.5
68891;BME280;55932;48.702;8.884;2022-07-29T01:38:02;95930;;;17.8;50.5
68891;BME280;55932;48.702;8.884;2022-07-29T01:40:27;95920;;;17.8;50.5
68891;BME280;55932;48.702;8.884;2022-07-29T01:42:56;95920;;;17.9;50.5
68891;BME280;55932;48.702;8.884;2022-07-29T01:47:56;95920;;;17.9;50.5
68891;BME280;55932;48.702;8.884;2022-07-29T01:50:20;95910;;;17.9;50.5
68891;BME280;55932;48.702;8.884;2022-07-29T01:52:54;95910;;;17.9;50.5
68891;BME280;55932;48.702;8.884;2022-07-29T01:55:24;95910;;;17.8;50.5
68891;BME280;55932;48.702;8.884;2022-07-29T01:57:59;95910;;;17.8;50.5
68891;BME280;55932;48.702;8.884;2022-07-29T02:00:24;95910;;;17.8;50.5
68891;BME280;55932;48.702;8.884;2022-07-29T02:02:54;95910;;;17.7;50.5
68891;BME280;55932;48.702;8.884;2022-07-29T02:05:26;95900;;;17.7;50.5
68891;BME280;55932;48.702;8.884;2022-07-29T02:15:34;95910;;;17.6;51
68891;BME280;55932;48.702;8.884;2022-07-29T02:18:07;95900;;;17.6;51
68891;BME280;55932;48.702;8.884;2022-07-29T02:23:07;95910;;;17.7;51
68891;BME280;55932;48.702;8.884;2022-07-29T02:28:08;95910;;;17.7;51
68891;BME280;55932;48.702;8.884;2022-07-29T02:30:39;95910;;;17.7;51
68891;BME280;55932;48.702;8.884;2022-07-29T02:33:16;95910;;;17.6;51
68891;BME280;55932;48.702;8.884;2022-07-29T02:35:47;95910;;;17.6;51
68891;BME280;55932;48.702;8.884;2022-07-29T02:40:38;95910;;;17.5;51
68891;BME280;55932;48.702;8.884;2022-07-29T02:43:07;95910;;;17.4;51
68891;BME280;55932;48.702;8.884;2022-07-29T02:45:37;95910;;;17.4;51
68891;BME280;55932;48.702;8.884;2022-07-29T02:48:10;95910;;;17.4;51
68891;BME280;55932;48.702;8.884;2022-07-29T02:50:42;95910;;;17.3;51.5
68891;BME280;55932;48.702;8.884;2022-07-29T02:53:14;95900;;;17.3;51.5
68891;BME280;55932;48.702;8.884;2022-07-29T02:55:43;95900;;;17.3;51
68891;BME280;55932;48.702;8.884;2022-07-29T03:03:14;95900;;;17.2;51.5
68891;BME280;55932;48.702;8.884;2022-07-29T03:05:44;95900;;;17.3;51.5
68891;BME280;55932;48.702;8.884;2022-07-29T03:10:51;95900;;;17.2;51.5
68891;BME280;55932;48.702;8.884;2022-07-29T03:13:22;95900;;;17.2;51.5
68891;BME280;55932;48.702;8.884;2022-07-29T03:15:53;95900;;;17.3;51.5
68891;BME280;55932;48.702;8.884;2022-07-29T03:20:48;95910;;;17.2;51.5
68891;BME280;55932;48.702;8.884;2022-07-29T03:23:19;95900;;;17.1;51.5
68891;BME280;55932;48.702;8.884;2022-07-29T03:33:22;95900;;;17.1;51.5
68891;BME280;55932;48.702;8.884;2022-07-29T03:38:24;95910;;;17;51.5
68891;BME280;55932;48.702;8.884;2022-07-29T03:40:56;95900;;;17;51.5
68891;BME280;55932;48.702;8.884;2022-07-29T03:46:09;95900;;;17;51.5
68891;BME280;55932;48.702;8.884;2022-07-29T03:48:39;95900;;;17;51.5
68891;BME280;55932;48.702;8.884;2022-07-29T03:51:08;95910;;;17;51.5
68891;BME280;55932;48.702;8.884;2022-07-29T03:53:39;95900;;;17;51.5
68891;BME280;55932;48.702;8.884;2022-07-29T03:56:09;95900;;;17;51.5
68891;BME280;55932;48.702;8.884;2022-07-29T04:01:10;95900;;;16.9;51.5
68891;BME280;55932;48.702;8.884;2022-07-29T04:06:05;95910;;;16.8;52
68891;BME280;55932;48.702;8.884;2022-07-29T04:08:35;95920;;;16.7;52
68891;BME280;55932;48.702;8.884;2022-07-29T04:11:07;95920;;;16.5;52
68891;BME280;55932;48.702;8.884;2022-07-29T04:16:08;95920;;;16.4;52
68891;BME280;55932;48.702;8.884;2022-07-29T04:18:38;95920;;;16.4;52.5
68891;BME280;55932;48.702;8.884;2022-07-29T04:23:47;95920;;;16.5;52
68891;BME280;55932;48.702;8.884;2022-07-29T04:28:42;95920;;;16.7;52
68891;BME280;55932;48.702;8.884;2022-07-29T04:31:13;95920;;;16.8;51.5
68891;BME280;55932;48.702;8.884;2022-07-29T04:33:44;95920;;;17;51.5
68891;BME280;55932;48.702;8.884;2022-07-29T04:36:15;95920;;;17.1;51.5
68891;BME280;55932;48.702;8.884;2022-07-29T04:38:46;95920;;;17.2;51.5
68891;BME280;55932;48.702;8.884;2022-07-29T04:43:47;95920;;;17.3;51.5
68891;BME280;55932;48.702;8.884;2022-07-29T04:46:18;95930;;;17.3;51
68891;BME280;55932;48.702;8.884;2022-07-29T04:48:49;95920;;;17.4;51
68891;BME280;55932;48.702;8.884;2022-07-29T04:51:27;95920;;;17.5;51
68891;BME280;55932;48.702;8.884;2022-07-29T04:53:58;95920;;;17.6;51
68891;BME280;55932;48.702;8.884;2022-07-29T04:56:22;95920;;;17.7;51
68891;BME280;55932;48.702;8.884;2022-07-29T04:58:54;95920;;;17.7;51
68891;BME280;55932;48.702;8.884;2022-07-29T05:01:24;95920;;;17.8;51
68891;BME280;55932;48.702;8.884;2022-07-29T05:06:20;95920;;;18;50.5
68891;BME280;55932;48.702;8.884;2022-07-29T05:08:50;95910;;;18.2;50.5
68891;BME280;55932;48.702;8.884;2022-07-29T05:11:21;95930;;;18.3;50.5
68891;BME280;55932;48.702;8.884;2022-07-29T05:13:52;95920;;;18.3;50.5
68891;BME280;55932;48.702;8.884;2022-07-29T05:21:24;95930;;;19;49.5
68891;BME280;55932;48.702;8.884;2022-07-29T05:23:55;95930;;;19;49.5
68891;BME280;55932;48.702;8.884;2022-07-29T05:26:29;95930;;;19.1;50
68891;BME280;55932;48.702;8.884;2022-07-29T05:28:56;95940;;;19.1;50
68891;BME280;55932;48.702;8.884;2022-07-29T05:31:27;95930;;;19.3;50
68891;BME280;55932;48.702;8.884;2022-07-29T05:36:35;95930;;;19.6;49.5
68891;BME280;55932;48.702;8.884;2022-07-29T05:39:06;95930;;;19.7;49.5
68891;BME280;55932;48.702;8.884;2022-07-29T05:41:36;95930;;;19.7;49.5
68891;BME280;55932;48.702;8.884;2022-07-29T05:49:02;95930;;;19.7;50
68891;BME280;55932;48.702;8.884;2022-07-29T05:51:34;95930;;;19.8;50
68891;BME280;55932;48.702;8.884;2022-07-29T05:54:06;95930;;;20;49.5
68891;BME280;55932;48.702;8.884;2022-07-29T05:56:35;95930;;;20.1;49.5
68891;BME280;55932;48.702;8.884;2022-07-29T05:59:05;95930;;;20.2;49.5
68891;BME280;55932;48.702;8.884;2022-07-29T06:01:36;95940;;;20.5;49.5
68891;BME280;55932;48.702;8.884;2022-07-29T06:04:07;95940;;;20.6;49
68891;BME280;55932;48.702;8.884;2022-07-29T06:06:37;95940;;;20.6;49
68891;BME280;55932;48.702;8.884;2022-07-29T06:09:08;95950;;;21;49
68891;BME280;55932;48.702;8.884;2022-07-29T06:11:45;95950;;;21.3;48.5
68891;BME280;55932;48.702;8.884;2022-07-29T06:14:16;95950;;;21.5;48.5
68891;BME280;55932;48.702;8.884;2022-07-29T06:16:54;95950;;;21.5;48.5
68891;BME280;55932;48.702;8.884;2022-07-29T06:19:25;95960;;;21.5;48.5
68891;BME280;55932;48.702;8.884;2022-07-29T06:24:13;95960;;;21.6;48.5
68891;BME280;55932;48.702;8.884;2022-07-29T06:26:44;95960;;;21.6;48.5
68891;BME280;55932;48.702;8.884;2022-07-29T06:29:15;95960;;;21.9;48.5
68891;BME280;55932;48.702;8.884;2022-07-29T06:31:46;95960;;;21.9;48.5
68891;BME280;55932;48.702;8.884;2022-07-29T06:34:17;95960;;;21.9;48.5
68891;BME280;55932;48.702;8.884;2022-07-29T06:36:47;95960;;;21.9;49
68891;BME280;55932;48.702;8.884;2022-07-29T06:39:18;95960;;;22;49
68891;BME280;55932;48.702;8.884;2022-07-29T06:47:03;95960;;;22.7;48
68891;BME280;55932;48.702;8.884;2022-07-29T06:51:57;95960;;;23.1;48
68891;BME280;55932;48.702;8.884;2022-07-29T06:54:28;95960;;;23.4;47.5
68891;BME280;55932;48.702;8.884;2022-07-29T06:56:59;95970;;;23.6;47.5
68891;BME280;55932;48.702;8.884;2022-07-29T07:01:54;95970;;;23.5;47.5
68891;BME280;55932;48.702;8.884;2022-07-29T07:04:24;95970;;;23.8;47.5
68891;BME280;55932;48.702;8.884;2022-07-29T07:06:55;95970;;;23.8;47.5
68891;BME280;55932;48.702;8.884;2022-07-29T07:16:58;95980;;;24.7;46
68891;BME280;55932;48.702;8.884;2022-07-29T07:19:29;95980;;;26.1;44
68891;BME280;55932;48.702;8.884;2022-07-29T07:22:13;95980;;;27.9;42
68891;BME280;55932;48.702;8.884;2022-07-29T07:27:13;95980;;;32.4;37
68891;BME280;55932;48.702;8.884;2022-07-29T07:29:44;95980;;;33.4;36
68891;BME280;55932;48.702;8.884;2022-07-29T07:32:14;95990;;;32.7;38
68891;BME280;55932;48.702;8.884;2022-07-29T07:34:44;95990;;;31.6;40
68891;BME280;55932;48.702;8.884;2022-07-29T07:37:14;95990;;;30.7;41
68891;BME280;55932;48.702;8.884;2022-07-29T07:39:45;95980;;;29.5;43
68891;BME280;55932;48.702;8.884;2022-07-29T07:42:16;95990;;;29.7;43
68891;BME280;55932;48.702;8.884;2022-07-29T07:47:12;95970;;;30.3;43
68891;BME280;55932;48.702;8.884;2022-07-29T07:49:49;95980;;;32;40.5
68891;BME280;55932;48.702;8.884;2022-07-29T07:54:49;95980;;;33.9;38
68891;BME280;55932;48.702;8.884;2022-07-29T07:57:24;95980;;;34.9;37
68891;BME280;55932;48.702;8.884;2022-07-29T07:59:43;95990;;;34.4;38.5
68891;BME280;55932;48.702;8.884;2022-07-29T08:02:16;95990;;;34.6;38.5
68891;BME280;55932;48.702;8.884;2022-07-29T08:04:45;95990;;;35.5;37.5
68891;BME280;55932;48.702;8.884;2022-07-29T08:07:22;95990;;;36.4;37
68891;BME280;55932;48.702;8.884;2022-07-29T08:12:30;95990;;;34.7;40
68891;BME280;55932;48.702;8.884;2022-07-29T08:17:24;95980;;;34.8;40
68891;BME280;55932;48.702;8.884;2022-07-29T08:22:24;95990;;;33.9;42
68891;BME280;55932;48.702;8.884;2022-07-29T08:24:55;95980;;;32.9;43.5
68891;BME280;55932;48.702;8.884;2022-07-29T08:27:25;95980;;;33.3;42.5
68891;BME280;55932;48.702;8.884;2022-07-29T08:32:27;95980;;;33.3;42.5
68891;BME280;55932;48.702;8.884;2022-07-29T08:37:23;95990;;;32.5;44.5
68891;BME280;55932;48.702;8.884;2022-07-29T08:42:23;95980;;;33.6;42
68891;BME280;55932;48.702;8.884;2022-07-29T08:47:31;95990;;;35.4;40
68891;BME280;55932;48.702;8.884;2022-07-29T08:50:01;95990;;;34.8;40.5
68891;BME280;55932;48.702;8.884;2022-07-29T08:54:55;95990;;;35.5;40
68891;BME280;55932;48.702;8.884;2022-07-29T08:57:29;95990;;;35.4;41
68891;BME280;55932;48.702;8.884;2022-07-29T08:59:57;95990;;;36.6;39
68891;BME280;55932;48.702;8.884;2022-07-29T09:02:28;95990;;;35.5;40.5
68891;BME280;55932;48.702;8.884;2022-07-29T09:05:05;96000;;;31.9;46
68891;BME280;55932;48.702;8.884;2022-07-29T09:12:37;95990;;;28.5;50.5
68891;BME280;55932;48.702;8.884;2022-07-29T09:15:08;96000;;;28.5;50
68891;BME280;55932;48.702;8.884;2022-07-29T09:20:08;95990;;;31;46.5
68891;BME280;55932;48.702;8.884;2022-07-29T09:22:33;95990;;;31.7;45
68891;BME280;55932;48.702;8.884;2022-07-29T09:25:04;95990;;;30.3;46.5
68891;BME280;55932;48.702;8.884;2022-07-29T09:27:35;95990;;;29.1;48.5
68891;BME280;55932;48.702;8.884;2022-07-29T09:30:07;95980;;;30.6;46.5
68891;BME280;55932;48.702;8.884;2022-07-29T09:35:31;95970;;;35.2;41
68891;BME280;55932;48.702;8.884;2022-07-29T09:37:31;95970;;;36.1;39.5
68891;BME280;55932;48.702;8.884;2022-07-29T09:40:10;95970;;;34;42
68891;BME280;55932;48.702;8.884;2022-07-29T09:42:32;95980;;;31.5;45.5
68891;BME280;55932;48.702;8.884;2022-07-29T09:50:17;95970;;;27.7;50.5
68891;BME280;55932;48.702;8.884;2022-07-29T09:52:55;95980;;;25.1;52.5
68891;BME280;55932;48.702;8.884;2022-07-29T09:55:18;95980;;;22.6;55
68891;BME280;55932;48.702;8.884;2022-07-29T09:57:42;95990;;;21.7;55.5
68891;BME280;55932;48.702;8.884;2022-07-29T10:00:20;96000;;;21.3;55.5
68891;BME280;55932;48.702;8.884;2022-07-29T10:05:16;96030;;;20.2;56
68891;BME280;55932;48.702;8.884;2022-07-29T10:10:25;96050;;;19;56.5
68891;BME280;55932;48.702;8.884;2022-07-29T10:12:55;96060;;;18.4;57
68891;BME280;55932;48.702;8.884;2022-07-29T10:15:24;96060;;;17.9;57
68891;BME280;55932;48.702;8.884;2022-07-29T10:17:54;96050;;;17.2;57.5
68891;BME280;55932;48.702;8.884;2022-07-29T10:22:48;96040;;;17.1;57
68891;BME280;55932;48.702;8.884;2022-07-29T10:25:19;96030;;;17.3;56.5
68891;BME280;55932;48.702;8.884;2022-07-29T10:27:50;96050;;;17.3;56.5
68891;BME280;55932;48.702;8.884;2022-07-29T10:30:28;96050;;;17.4;56
68891;BME280;55932;48.702;8.884;2022-07-29T10:32:50;96060;;;17.4;56
68891;BME280;55932;48.702;8.884;2022-07-29T10:40:18;96040;;;17.6;55.5
68891;BME280;55932;48.702;8.884;2022-07-29T10:45:29;96030;;;17.4;55
68891;BME280;55932;48.702;8.884;2022-07-29T10:47:53;96030;;;17.4;55
68891;BME280;55932;48.702;8.884;2022-07-29T10:50:21;96040;;;17.5;55
68891;BME280;55932;48.702;8.884;2022-07-29T10:52:53;96040;;;17.3;55
68891;BME280;55932;48.702;8.884;2022-07-29T10:58:24;96030;;;17;55.5
68891;BME280;55932;48.702;8.884;2022-07-29T11:00:26;96030;;;16.9;55.5
68891;BME280;55932;48.702;8.884;2022-07-29T11:03:01;96040;;;17.1;55
68891;BME280;55932;48.702;8.884;2022-07-29T11:06:03;96040;;;17.3;55
68891;BME280;55932;48.702;8.884;2022-07-29T11:08:17;96030;;;17.6;54.5
68891;BME280;55932;48.702;8.884;2022-07-29T11:10:27;96020;;;17.9;54
68891;BME280;55932;48.702;8.884;2022-07-29T11:18:03;96020;;;19.5;52.5
68891;BME280;55932;48.702;8.884;2022-07-29T11:20:32;96010;;;20.6;52
68891;BME280;55932;48.702;8.884;2022-07-29T11:23:01;96010;;;22.1;50.5
68891;BME280;55932;48.702;8.884;2022-07-29T11:25:32;96010;;;22.6;51
68891;BME280;55932;48.702;8.884;2022-07-29T11:28:12;96010;;;24;49.5
68891;BME280;55932;48.702;8.884;2022-07-29T11:30:55;96010;;;25.1;48.5
68891;BME280;55932;48.702;8.884;2022-07-29T11:35:42;96010;;;23.1;50.5
68891;BME280;55932;48.702;8.884;2022-07-29T11:38:28;96010;;;22.5;51
68891;BME280;55932;48.702;8.884;2022-07-29T11:41:08;96010;;;22.1;51
68891;BME280;55932;48.702;8.884;2022-07-29T11:43:28;96010;;;21.8;51.5
68891;BME280;55932;48.702;8.884;2022-07-29T11:45:46;96010;;;22.1;51.5
68891;BME280;55932;48.702;8.884;2022-07-29T11:48:17;96010;;;22.9;51
68891;BME280;55932;48.702;8.884;2022-07-29T11:50:54;96010;;;23.6;50
68891;BME280;55932;48.702;8.884;2022-07-29T11:53:24;96010;;;23.8;50
68891;BME280;55932;48.702;8.884;2022-07-29T11:58:21;96010;;;23.7;50.5
68891;BME280;55932;48.702;8.884;2022-07-29T12:00:51;96010;;;23.7;50
68891;BME280;55932;48.702;8.884;2022-07-29T12:03:24;96010;;;23.4;50
68891;BME280;55932;48.702;8.884;2022-07-29T12:05:44;96010;;;23.1;50.5
68891;BME280;55932;48.702;8.884;2022-07-29T12:08:16;96010;;;23;51
68891;BME280;55932;48.702;8.884;2022-07-29T12:10:46;96020;;;23;51
68891;BME280;55932;48.702;8.884;2022-07-29T12:13:17;96020;;;22.8;51.5
68891;BME280;55932;48.702;8.884;2022-07-29T12:20:49;96010;;;22.4;51.5
68891;BME280;55932;48.702;8.884;2022-07-29T12:26:16;96010;;;21.8;52.5
68891;BME280;55932;48.702;8.884;2022-07-29T12:28:36;96010;;;21.6;53
68891;BME280;55932;48.702;8.884;2022-07-29T12:31:03;96010;;;21.5;53
68891;BME280;55932;48.702;8.884;2022-07-29T12:35:57;96020;;;21.4;53
68891;BME280;55932;48.702;8.884;2022-07-29T12:38:28;96020;;;21.3;53
68891;BME280;55932;48.702;8.884;2022-07-29T12:40:58;96030;;;21.1;53.5
68891;BME280;55932;48.702;8.884;2022-07-29T12:43:30;96030;;;21;53.5
68891;BME280;55932;48.702;8.884;2022-07-29T12:48:44;96030;;;20.7;53.5
68891;BME280;55932;48.702;8.884;2022-07-29T12:51:28;96040;;;20.5;54
68891;BME280;55932;48.702;8.884;2022-07-29T12:56:03;96040;;;20.2;54
68891;BME280;55932;48.702;8.884;2022-07-29T12:58:37;96040;;;20;54
68891;BME280;55932;48.702;8.884;2022-07-29T13:03:28;96040;;;19.8;54.5
68891;BME280;55932;48.702;8.884;2022-07-29T13:05:59;96050;;;19.8;54.5
68891;BME280;55932;48.702;8.884;2022-07-29T13:13:31;96040;;;21.4;53
68891;BME280;55932;48.702;8.884;2022-07-29T13:16:06;96040;;;22.4;52
68891;BME280;55932;48.702;8.884;2022-07-29T13:18:34;96030;;;23.1;51.5
68891;BME280;55932;48.702;8.884;2022-07-29T13:21:12;96040;;;23.5;51
68891;BME280;55932;48.702;8.884;2022-07-29T13:26:11;96040;;;24.8;50
68891;BME280;55932;48.702;8.884;2022-07-29T13:28:42;96030;;;25.3;49.5
68891;BME280;55932;48.702;8.884;2022-07-29T13:31:13;96030;;;25.8;49.5
68891;BME280;55932;48.702;8.884;2022-07-29T13:36:08;96030;;;25.4;50
68891;BME280;55932;48.702;8.884;2022-07-29T13:38:39;96030;;;25.1;49.5
68891;BME280;55932;48.702;8.884;2022-07-29T13:41:12;96030;;;24.7;50.5
68891;BME280;55932;48.702;8.884;2022-07-29T13:48:42;96030;;;24.4;51
68891;BME280;55932;48.702;8.884;2022-07-29T13:51:13;96030;;;24.4;51
68891;BME280;55932;48.702;8.884;2022-07-29T13:53:44;96030;;;24.4;51.5
68891;BME280;55932;48.702;8.884;2022-07-29T13:56:25;96020;;;24.8;50.5
68891;BME280;55932;48.702;8.884;2022-07-29T13:58:52;96020;;;24.8;50.5
68891;BME280;55932;48.702;8.884;2022-07-29T14:01:23;96010;;;24.8;50.5
68891;BME280;55932;48.702;8.884;2022-07-29T14:03:46;96010;;;24.8;51
68891;BME280;55932;48.702;8.884;2022-07-29T14:06:21;96010;;;24.9;51
68891;BME280;55932;48.702;8.884;2022-07-29T14:11:19;96010;;;24.8;51.5
68891;BME280;55932;48.702;8.884;2022-07-29T14:13:50;96010;;;24.5;52
68891;BME280;55932;48.702;8.884;2022-07-29T14:16:21;96010;;;24.7;51.5
68891;BME280;55932;48.702;8.884;2022-07-29T14:18:58;96010;;;24.9;51.5
68891;BME280;55932;48.702;8.884;2022-07-29T14:21:29;96000;;;25.2;51
68891;BME280;55932;48.702;8.884;2022-07-29T14:26:24;96010;;;25.3;51.5
68891;BME280;55932;48.702;8.884;2022-07-29T14:28:55;96010;;;25.4;51.5
68891;BME280;55932;48.702;8.884;2022-07-29T14:31:26;96000;;;25.2;52
68891;BME280;55932;48.702;8.884;2022-07-29T14:38:58;96000;;;25.5;51
68891;BME280;55932;48.702;8.884;2022-07-29T14:41:29;96010;;;25.7;51
68891;BME280;55932;48.702;8.884;2022-07-29T14:43:59;96010;;;25.8;51
68891;BME280;55932;48.702;8.884;2022-07-29T14:46:37;96010;;;25.9;51
68891;BME280;55932;48.702;8.884;2022-07-29T14:49:08;96010;;;25.8;51
68891;BME280;55932;48.702;8.884;2022-07-29T14:51:39;96010;;;25.5;51.5
68891;BME280;55932;48.702;8.884;2022-07-29T14:54:16;96010;;;25.3;52
68891;BME280;55932;48.702;8.884;2022-07-29T14:56:48;96010;;;25.2;52
68891;BME280;55932;48.702;8.884;2022-07-29T15:04:20;96020;;;25.4;52
68891;BME280;55932;48.702;8.884;2022-07-29T15:06:50;96010;;;25.2;52
68891;BME280;55932;48.702;8.884;2022-07-29T15:11:44;96020;;;24.8;53
68891;BME280;55932;48.702;8.884;2022-07-29T15:14:14;96020;;;24.7;53
68891;BME280;55932;48.702;8.884;2022-07-29T15:16:45;96010;;;24.5;53.5
68891;BME280;55932;48.702;8.884;2022-07-29T15:24:11;96020;;;24.6;53.5
68891;BME280;55932;48.702;8.884;2022-07-29T15:26:42;96020;;;24.5;53.5
68891;BME280;55932;48.702;8.884;2022-07-29T15:29:13;96010;;;24.4;53.5
68891;BME280;55932;48.702;8.884;2022-07-29T15:31:43;96020;;;24.4;53.5
68891;BME280;55932;48.702;8.884;2022-07-29T15:34:14;96020;;;24.5;53.5
68891;BME280;55932;48.702;8.884;2022-07-29T15:36:45;96020;;;24.6;53.5
68891;BME280;55932;48.702;8.884;2022-07-29T15:39:16;96010;;;24.8;53.5
68891;BME280;55932;48.702;8.884;2022-07-29T15:41:46;96010;;;25;53
68891;BME280;55932;48.702;8.884;2022-07-29T15:44:17;96010;;;25.1;53
68891;BME280;55932;48.702;8.884;2022-07-29T15:54:20;96020;;;25.3;53
68891;BME280;55932;48.702;8.884;2022-07-29T15:59:30;96020;;;25.2;53
68891;BME280;55932;48.702;8.884;2022-07-29T16:02:00;96020;;;25.1;53.5
68891;BME280;55932;48.702;8.884;2022-07-29T16:04:31;96020;;;25.1;53.5
68891;BME280;55932;48.702;8.884;2022-07-29T16:09:25;96020;;;24.9;54
68891;BME280;55932;48.702;8.884;2022-07-29T16:11:55;96010;;;24.8;54
68891;BME280;55932;48.702;8.884;2022-07-29T16:14:26;96010;;;24.8;54
68891;BME280;55932;48.702;8.884;2022-07-29T16:24:29;96010;;;24.9;54
68891;BME280;55932;48.702;8.884;2022-07-29T16:27:00;96010;;;24.7;54
68891;BME280;55932;48.702;8.884;2022-07-29T16:29:31;96010;;;24.7;54
68891;BME280;55932;48.702;8.884;2022-07-29T16:34:38;96010;;;24.7;54.5
68891;BME280;55932;48.702;8.884;2022-07-29T16:37:09;96010;;;24.9;54
68891;BME280;55932;48.702;8.884;2022-07-29T16:42:05;96010;;;24.8;54.5
68891;BME280;55932;48.702;8.884;2022-07-29T16:49:37;96010;;;25.3;53.5
68891;BME280;55932;48.702;8.884;2022-07-29T16:52:08;96020;;;25.5;53.5
68891;BME280;55932;48.702;8.884;2022-07-29T16:54:40;96020;;;25.2;53.5
68891;BME280;55932;48.702;8.884;2022-07-29T16:57:09;96020;;;25;54
68891;BME280;55932;48.702;8.884;2022-07-29T17:02:17;96020;;;25;54
68891;BME280;55932;48.702;8.884;2022-07-29T17:04:48;96020;;;25.1;54
68891;BME280;55932;48.702;8.884;2022-07-29T17:07:19;96020;;;25;54
68891;BME280;55932;48.702;8.884;2022-07-29T17:09:43;96020;;;24.9;54.5
68891;BME280;55932;48.702;8.884;2022-07-29T17:19:47;96020;;;24.7;54.5
68891;BME280;55932;48.702;8.884;2022-07-29T17:24:48;96020;;;24.9;54.5
68891;BME280;55932;48.702;8.884;2022-07-29T17:27:19;96030;;;25.1;54
68891;BME280;55932;48.702;8.884;2022-07-29T17:32:46;96030;;;25.1;54
68891;BME280;55932;48.702;8.884;2022-07-29T17:35:04;96040;;;25.1;54.5
68891;BME280;55932;48.702;8.884;2022-07-29T17:37:33;96040;;;25;54.5
68891;BME280;55932;48.702;8.884;2022-07-29T17:40:03;96040;;;24.8;55
68891;BME280;55932;48.702;8.884;2022-07-29T17:42:34;96040;;;24.6;55
68891;BME280;55932;48.702;8.884;2022-07-29T17:47:28;96040;;;24.6;55
68891;BME280;55932;48.702;8.884;2022-07-29T17:49:59;96040;;;24.7;55
68891;BME280;55932;48.702;8.884;2022-07-29T17:52:29;96040;;;24.7;55
68891;BME280;55932;48.702;8.884;2022-07-29T17:54:54;96040;;;24.8;55
68891;BME280;55932;48.702;8.884;2022-07-29T17:57:24;96040;;;24.7;55
68891;BME280;55932;48.702;8.884;2022-07-29T17:59:55;96050;;;24.6;55
68891;BME280;55932;48.702;8.884;2022-07-29T18:02:25;96050;;;24.6;55
68891;BME280;55932;48.702;8.884;2022-07-29T18:09:58;96050;;;24.1;56
68891;BME280;55932;48.702;8.884;2022-07-29T18:12:36;96050;;;24;56
68891;BME280;55932;48.702;8.884;2022-07-29T18:17:42;96060;;;23.6;56.5
68891;BME280;55932;48.702;8.884;2022-07-29T18:20:13;96060;;;23.3;57
68891;BME280;55932;48.702;8.884;2022-07-29T18:25:06;96060;;;23.1;57
68891;BME280;55932;48.702;8.884;2022-07-29T18:27:38;96060;;;23;57
68891;BME280;55932;48.702;8.884;2022-07-29T18:30:15;96060;;;22.8;57.5
68891;BME280;55932;48.702;8.884;2022-07-29T18:32:39;96070;;;22.7;57.5
68891;BME280;55932;48.702;8.884;2022-07-29T18:35:20;96070;;;22.5;57.5
68891;BME280;55932;48.702;8.884;2022-07-29T18:37:54;96070;;;22.3;58
68891;BME280;55932;48.702;8.884;2022-07-29T18:40:30;96070;;;22.2;58
68891;BME280;55932;48.702;8.884;2022-07-29T18:45:11;96070;;;21.7;58.5
68891;BME280;55932;48.702;8.884;2022-07-29T18:47:42;96070;;;21.4;59
68891;BME280;55932;48.702;8.884;2022-07-29T18:50:14;96070;;;21.1;59
68891;BME280;55932;48.702;8.884;2022-07-29T18:52:40;96060;;;20.8;59.5
68891;BME280;55932;48.702;8.884;2022-07-29T18:55:07;96070;;;20.6;59.5
68891;BME280;55932;48.702;8.884;2022-07-29T19:02:40;96080;;;19.9;60
68891;BME280;55932;48.702;8.884;2022-07-29T19:05:11;96080;;;19.7;60
68891;BME280;55932;48.702;8.884;2022-07-29T19:07:41;96080;;;19.4;60.5
68891;BME280;55932;48.702;8.884;2022-07-29T19:10:12;96090;;;19.3;60.5
68891;BME280;55932;48.702;8.884;2022-07-29T19:12:43;96090;;;19.1;60.5
68891;BME280;55932;48.702;8.884;2022-07-29T19:15:20;96090;;;19;60.5
68891;BME280;55932;48.702;8.884;2022-07-29T19:17:51;96100;;;18.9;60.5
68891;BME280;55932;48.702;8.884;2022-07-29T19:20:22;96100;;;18.8;60.5
68891;BME280;55932;48.702;8.884;2022-07-29T19:22:53;96100;;;18.7;60.5
68891;BME280;55932;48.702;8.884;2022-07-29T19:25:24;96110;;;18.5;60.5
68891;BME280;55932;48.702;8.884;2022-07-29T19:27:55;96110;;;18.5;60.5
68891;BME280;55932;48.702;8.884;2022-07-29T19:30:33;96120;;;18.4;60.5
68891;BME280;55932;48.702;8.884;2022-07-29T19:35:21;96120;;;18.3;60.5
68891;BME280;55932;48.702;8.884;2022-07-29T19:37:52;96120;;;18.2;60.5
68891;BME280;55932;48.702;8.884;2022-07-29T19:40:22;96130;;;18.1;60.5
68891;BME280;55932;48.702;8.884;2022-07-29T19:42:53;96130;;;18;60.5
68891;BME280;55932;48.702;8.884;2022-07-29T19:45:24;96140;;;18;60.5
68891;BME280;55932;48.702;8.884;2022-07-29T19:48:24;96140;;;18;60